sensor_id;sensor_type;location;lat;lon;timestamp;P1;durP1;ratioP1;P2;durP2;ratioP2
19207;SDS011;9737;59.466;18.036;2023-08-06T00:00:07;20.77;;;6.85;;
19207;SDS011;9737;59.466;18.036;2023-08-06T00:02:36;12.75;;;7.30;;
19207;SDS011;9737;59.466;18.036;2023-08-06T00:05:04;17.98;;;7.13;;
19207;SDS011;9737;59.466;18.036;2023-08-06T00:07:33;19.30;;;6.88;;
19207;SDS011;9737;59.466;18.036;2023-08-06T00:10:00;18.55;;;6.60;;
19207;SDS011;9737;59.466;18.036;2023-08-06T00:12:28;16.70;;;6.50;;
19207;SDS011;9737;59.466;18.036;2023-08-06T00:14:57;13.70;;;6.15;;
19207;SDS011;9737;59.466;18.036;2023-08-06T00:17:26;16.48;;;6.30;;
19207;SDS011;9737;59.466;18.036;2023-08-06T00:19:54;13.38;;;7.00;;
19207;SDS011;9737;59.466;18.036;2023-08-06T00:22:22;15.50;;;6.95;;
19207;SDS011;9737;59.466;18.036;2023-08-06T00:24:50;19.38;;;6.72;;
19207;SDS011;9737;59.466;18.036;2023-08-06T00:27:19;17.33;;;6.82;;
19207;SDS011;9737;59.466;18.036;2023-08-06T00:29:47;17.02;;;6.60;;
19207;SDS011;9737;59.466;18.036;2023-08-06T00:32:16;13.05;;;6.68;;
19207;SDS011;9737;59.466;18.036;2023-08-06T00:34:45;19.88;;;8.32;;
19207;SDS011;9737;59.466;18.036;2023-08-06T00:37:13;30.65;;;11.27;;
19207;SDS011;9737;59.466;18.036;2023-08-06T00:39:41;38.53;;;13.88;;
19207;SDS011;9737;59.466;18.036;2023-08-06T00:42:09;30.83;;;11.82;;
19207;SDS011;9737;59.466;18.036;2023-08-06T00:44:37;36.75;;;11.05;;
19207;SDS011;9737;59.466;18.036;2023-08-06T00:47:05;22.40;;;8.88;;
19207;SDS011;9737;59.466;18.036;2023-08-06T00:49:36;20.60;;;8.43;;
19207;SDS011;9737;59.466;18.036;2023-08-06T00:52:04;22.08;;;8.27;;
19207;SDS011;9737;59.466;18.036;2023-08-06T00:54:34;19.92;;;7.93;;
19207;SDS011;9737;59.466;18.036;2023-08-06T00:57:03;15.60;;;7.35;;
19207;SDS011;9737;59.466;18.036;2023-08-06T00:59:33;21.65;;;9.00;;
19207;SDS011;9737;59.466;18.036;2023-08-06T01:02:02;23.45;;;8.48;;
19207;SDS011;9737;59.466;18.036;2023-08-06T01:04:31;29.65;;;8.95;;
19207;SDS011;9737;59.466;18.036;2023-08-06T01:07:04;21.00;;;8.40;;
19207;SDS011;9737;59.466;18.036;2023-08-06T01:09:43;27.75;;;9.32;;
19207;SDS011;9737;59.466;18.036;2023-08-06T01:12:21;28.42;;;9.55;;
19207;SDS011;9737;59.466;18.036;2023-08-06T01:15:02;29.83;;;11.05;;
19207;SDS011;9737;59.466;18.036;2023-08-06T01:17:35;27.38;;;10.50;;
19207;SDS011;9737;59.466;18.036;2023-08-06T01:20:04;27.58;;;11.05;;
19207;SDS011;9737;59.466;18.036;2023-08-06T01:22:34;29.80;;;10.05;;
19207;SDS011;9737;59.466;18.036;2023-08-06T01:25:03;29.30;;;10.38;;
19207;SDS011;9737;59.466;18.036;2023-08-06T01:27:33;26.48;;;10.00;;
19207;SDS011;9737;59.466;18.036;2023-08-06T01:30:06;29.67;;;9.90;;
19207;SDS011;9737;59.466;18.036;2023-08-06T01:32:41;30.13;;;9.88;;
19207;SDS011;9737;59.466;18.036;2023-08-06T01:35:12;25.48;;;9.55;;
19207;SDS011;9737;59.466;18.036;2023-08-06T01:37:44;23.30;;;8.43;;
19207;SDS011;9737;59.466;18.036;2023-08-06T01:40:13;22.90;;;8.27;;
19207;SDS011;9737;59.466;18.036;2023-08-06T01:42:43;23.83;;;8.65;;
19207;SDS011;9737;59.466;18.036;2023-08-06T01:45:11;22.05;;;8.93;;
19207;SDS011;9737;59.466;18.036;2023-08-06T01:47:38;20.38;;;8.00;;
19207;SDS011;9737;59.466;18.036;2023-08-06T01:50:07;16.88;;;7.63;;
19207;SDS011;9737;59.466;18.036;2023-08-06T01:52:35;16.00;;;7.45;;
19207;SDS011;9737;59.466;18.036;2023-08-06T01:55:04;22.13;;;7.88;;
19207;SDS011;9737;59.466;18.036;2023-08-06T01:57:32;15.75;;;6.85;;
19207;SDS011;9737;59.466;18.036;2023-08-06T02:00:19;18.70;;;7.38;;
19207;SDS011;9737;59.466;18.036;2023-08-06T02:02:46;13.32;;;6.93;;
19207;SDS011;9737;59.466;18.036;2023-08-06T02:05:15;20.17;;;7.22;;
19207;SDS011;9737;59.466;18.036;2023-08-06T02:07:43;14.80;;;7.03;;
19207;SDS011;9737;59.466;18.036;2023-08-06T02:10:12;20.40;;;8.15;;
19207;SDS011;9737;59.466;18.036;2023-08-06T02:12:40;19.73;;;6.93;;
19207;SDS011;9737;59.466;18.036;2023-08-06T02:15:08;22.85;;;8.07;;
19207;SDS011;9737;59.466;18.036;2023-08-06T02:17:36;19.20;;;7.85;;
19207;SDS011;9737;59.466;18.036;2023-08-06T02:20:05;19.35;;;7.47;;
19207;SDS011;9737;59.466;18.036;2023-08-06T02:22:33;17.05;;;7.43;;
19207;SDS011;9737;59.466;18.036;2023-08-06T02:25:02;13.35;;;7.07;;
19207;SDS011;9737;59.466;18.036;2023-08-06T02:27:31;17.92;;;7.85;;
19207;SDS011;9737;59.466;18.036;2023-08-06T02:29:59;16.52;;;7.60;;
19207;SDS011;9737;59.466;18.036;2023-08-06T02:35:03;15.98;;;7.18;;
19207;SDS011;9737;59.466;18.036;2023-08-06T02:37:32;15.75;;;6.85;;
19207;SDS011;9737;59.466;18.036;2023-08-06T02:40:01;15.68;;;6.85;;
19207;SDS011;9737;59.466;18.036;2023-08-06T02:42:31;12.63;;;6.97;;
19207;SDS011;9737;59.466;18.036;2023-08-06T02:44:59;18.60;;;6.78;;
19207;SDS011;9737;59.466;18.036;2023-08-06T02:47:26;21.17;;;7.30;;
19207;SDS011;9737;59.466;18.036;2023-08-06T02:49:54;17.67;;;6.75;;
19207;SDS011;9737;59.466;18.036;2023-08-06T02:52:23;19.67;;;7.70;;
19207;SDS011;9737;59.466;18.036;2023-08-06T02:54:51;15.02;;;7.45;;
19207;SDS011;9737;59.466;18.036;2023-08-06T02:57:19;15.70;;;7.15;;
19207;SDS011;9737;59.466;18.036;2023-08-06T02:59:48;16.92;;;7.25;;
19207;SDS011;9737;59.466;18.036;2023-08-06T03:02:16;15.45;;;7.20;;
19207;SDS011;9737;59.466;18.036;2023-08-06T03:04:43;15.70;;;7.20;;
19207;SDS011;9737;59.466;18.036;2023-08-06T03:07:12;16.05;;;7.40;;
19207;SDS011;9737;59.466;18.036;2023-08-06T03:09:40;18.90;;;7.20;;
19207;SDS011;9737;59.466;18.036;2023-08-06T03:12:08;21.70;;;7.90;;
19207;SDS011;9737;59.466;18.036;2023-08-06T03:14:36;10.73;;;6.57;;
19207;SDS011;9737;59.466;18.036;2023-08-06T03:17:05;12.25;;;7.15;;
19207;SDS011;9737;59.466;18.036;2023-08-06T03:19:52;15.32;;;7.03;;
19207;SDS011;9737;59.466;18.036;2023-08-06T03:22:19;13.63;;;6.85;;
19207;SDS011;9737;59.466;18.036;2023-08-06T03:24:49;13.40;;;6.95;;
19207;SDS011;9737;59.466;18.036;2023-08-06T03:27:18;16.05;;;6.65;;
19207;SDS011;9737;59.466;18.036;2023-08-06T03:29:48;15.23;;;6.65;;
19207;SDS011;9737;59.466;18.036;2023-08-06T03:32:18;14.13;;;7.10;;
19207;SDS011;9737;59.466;18.036;2023-08-06T03:34:46;13.20;;;6.32;;
19207;SDS011;9737;59.466;18.036;2023-08-06T03:37:13;16.00;;;7.78;;
19207;SDS011;9737;59.466;18.036;2023-08-06T03:39:41;13.88;;;6.88;;
19207;SDS011;9737;59.466;18.036;2023-08-06T03:42:09;14.48;;;7.38;;
19207;SDS011;9737;59.466;18.036;2023-08-06T03:44:37;13.85;;;7.05;;
19207;SDS011;9737;59.466;18.036;2023-08-06T03:47:05;14.35;;;7.32;;
19207;SDS011;9737;59.466;18.036;2023-08-06T03:49:35;18.33;;;8.15;;
19207;SDS011;9737;59.466;18.036;2023-08-06T03:52:03;16.48;;;7.30;;
19207;SDS011;9737;59.466;18.036;2023-08-06T03:54:31;15.57;;;7.07;;
19207;SDS011;9737;59.466;18.036;2023-08-06T03:56:59;12.65;;;7.20;;
19207;SDS011;9737;59.466;18.036;2023-08-06T03:59:27;13.23;;;7.28;;
19207;SDS011;9737;59.466;18.036;2023-08-06T04:01:55;16.55;;;7.10;;
19207;SDS011;9737;59.466;18.036;2023-08-06T04:05:13;13.50;;;7.45;;
19207;SDS011;9737;59.466;18.036;2023-08-06T04:07:41;15.13;;;7.82;;
19207;SDS011;9737;59.466;18.036;2023-08-06T04:10:09;15.32;;;7.50;;
19207;SDS011;9737;59.466;18.036;2023-08-06T04:12:37;14.20;;;8.13;;
19207;SDS011;9737;59.466;18.036;2023-08-06T04:15:06;16.02;;;7.70;;
19207;SDS011;9737;59.466;18.036;2023-08-06T04:17:34;17.38;;;7.85;;
19207;SDS011;9737;59.466;18.036;2023-08-06T04:20:02;22.15;;;8.82;;
19207;SDS011;9737;59.466;18.036;2023-08-06T04:22:32;17.88;;;8.48;;
19207;SDS011;9737;59.466;18.036;2023-08-06T04:25:18;15.85;;;8.30;;
19207;SDS011;9737;59.466;18.036;2023-08-06T04:27:47;18.23;;;8.50;;
19207;SDS011;9737;59.466;18.036;2023-08-06T04:30:15;19.52;;;9.27;;
19207;SDS011;9737;59.466;18.036;2023-08-06T04:32:43;14.13;;;7.82;;
19207;SDS011;9737;59.466;18.036;2023-08-06T04:35:11;16.65;;;8.32;;
19207;SDS011;9737;59.466;18.036;2023-08-06T04:37:40;13.98;;;8.35;;
19207;SDS011;9737;59.466;18.036;2023-08-06T04:40:08;13.65;;;7.75;;
19207;SDS011;9737;59.466;18.036;2023-08-06T04:42:37;14.30;;;7.88;;
19207;SDS011;9737;59.466;18.036;2023-08-06T04:45:05;20.60;;;8.07;;
19207;SDS011;9737;59.466;18.036;2023-08-06T04:47:34;17.15;;;7.93;;
19207;SDS011;9737;59.466;18.036;2023-08-06T04:50:20;17.85;;;8.13;;
19207;SDS011;9737;59.466;18.036;2023-08-06T04:52:49;13.45;;;8.13;;
19207;SDS011;9737;59.466;18.036;2023-08-06T04:55:17;18.50;;;8.07;;
19207;SDS011;9737;59.466;18.036;2023-08-06T04:57:45;14.30;;;7.20;;
19207;SDS011;9737;59.466;18.036;2023-08-06T05:00:13;12.52;;;6.47;;
19207;SDS011;9737;59.466;18.036;2023-08-06T05:02:41;14.50;;;6.75;;
19207;SDS011;9737;59.466;18.036;2023-08-06T05:05:09;13.77;;;7.38;;
19207;SDS011;9737;59.466;18.036;2023-08-06T05:07:36;13.48;;;6.80;;
19207;SDS011;9737;59.466;18.036;2023-08-06T05:10:06;12.30;;;7.40;;
19207;SDS011;9737;59.466;18.036;2023-08-06T05:12:34;10.88;;;6.75;;
19207;SDS011;9737;59.466;18.036;2023-08-06T05:15:03;12.10;;;6.57;;
19207;SDS011;9737;59.466;18.036;2023-08-06T05:17:31;14.13;;;7.22;;
19207;SDS011;9737;59.466;18.036;2023-08-06T05:19:59;13.45;;;6.50;;
19207;SDS011;9737;59.466;18.036;2023-08-06T05:22:27;11.75;;;7.00;;
19207;SDS011;9737;59.466;18.036;2023-08-06T05:24:55;11.55;;;6.95;;
19207;SDS011;9737;59.466;18.036;2023-08-06T05:27:24;11.40;;;6.90;;
19207;SDS011;9737;59.466;18.036;2023-08-06T05:29:54;9.85;;;6.05;;
19207;SDS011;9737;59.466;18.036;2023-08-06T05:32:22;16.48;;;6.28;;
19207;SDS011;9737;59.466;18.036;2023-08-06T05:34:50;11.35;;;6.15;;
19207;SDS011;9737;59.466;18.036;2023-08-06T05:37:18;12.15;;;5.68;;
19207;SDS011;9737;59.466;18.036;2023-08-06T05:39:46;13.18;;;5.80;;
19207;SDS011;9737;59.466;18.036;2023-08-06T05:42:14;11.35;;;5.65;;
19207;SDS011;9737;59.466;18.036;2023-08-06T05:44:43;9.45;;;5.53;;
19207;SDS011;9737;59.466;18.036;2023-08-06T05:47:11;12.20;;;5.10;;
19207;SDS011;9737;59.466;18.036;2023-08-06T05:49:39;6.72;;;4.45;;
19207;SDS011;9737;59.466;18.036;2023-08-06T05:52:07;9.23;;;4.88;;
19207;SDS011;9737;59.466;18.036;2023-08-06T05:54:35;12.63;;;4.90;;
19207;SDS011;9737;59.466;18.036;2023-08-06T05:57:03;11.63;;;4.47;;
19207;SDS011;9737;59.466;18.036;2023-08-06T05:59:31;7.20;;;4.45;;
19207;SDS011;9737;59.466;18.036;2023-08-06T06:02:00;13.15;;;4.50;;
19207;SDS011;9737;59.466;18.036;2023-08-06T06:04:28;10.15;;;3.63;;
19207;SDS011;9737;59.466;18.036;2023-08-06T06:06:56;7.22;;;4.25;;
19207;SDS011;9737;59.466;18.036;2023-08-06T06:09:24;14.13;;;4.35;;
19207;SDS011;9737;59.466;18.036;2023-08-06T06:11:52;7.45;;;4.10;;
19207;SDS011;9737;59.466;18.036;2023-08-06T06:14:20;6.47;;;3.92;;
19207;SDS011;9737;59.466;18.036;2023-08-06T06:17:08;8.32;;;4.45;;
19207;SDS011;9737;59.466;18.036;2023-08-06T06:19:36;14.98;;;4.80;;
19207;SDS011;9737;59.466;18.036;2023-08-06T06:22:04;10.15;;;4.30;;
19207;SDS011;9737;59.466;18.036;2023-08-06T06:24:33;8.02;;;3.97;;
19207;SDS011;9737;59.466;18.036;2023-08-06T06:27:00;5.32;;;3.60;;
19207;SDS011;9737;59.466;18.036;2023-08-06T06:29:28;7.07;;;3.70;;
19207;SDS011;9737;59.466;18.036;2023-08-06T06:31:56;9.90;;;3.88;;
19207;SDS011;9737;59.466;18.036;2023-08-06T06:34:25;4.35;;;3.40;;
19207;SDS011;9737;59.466;18.036;2023-08-06T06:36:53;7.35;;;3.40;;
19207;SDS011;9737;59.466;18.036;2023-08-06T06:39:21;8.23;;;3.35;;
19207;SDS011;9737;59.466;18.036;2023-08-06T06:41:49;7.75;;;3.33;;
19207;SDS011;9737;59.466;18.036;2023-08-06T06:44:17;3.88;;;2.90;;
19207;SDS011;9737;59.466;18.036;2023-08-06T06:46:46;6.55;;;3.17;;
19207;SDS011;9737;59.466;18.036;2023-08-06T06:49:14;5.10;;;2.90;;
19207;SDS011;9737;59.466;18.036;2023-08-06T06:51:44;4.93;;;2.95;;
19207;SDS011;9737;59.466;18.036;2023-08-06T06:54:12;9.35;;;2.78;;
19207;SDS011;9737;59.466;18.036;2023-08-06T06:56:40;6.40;;;2.88;;
19207;SDS011;9737;59.466;18.036;2023-08-06T06:59:26;7.13;;;2.78;;
19207;SDS011;9737;59.466;18.036;2023-08-06T07:02:12;5.60;;;2.58;;
19207;SDS011;9737;59.466;18.036;2023-08-06T07:04:40;6.40;;;2.60;;
19207;SDS011;9737;59.466;18.036;2023-08-06T07:07:09;6.05;;;3.00;;
19207;SDS011;9737;59.466;18.036;2023-08-06T07:09:37;8.48;;;3.22;;
19207;SDS011;9737;59.466;18.036;2023-08-06T07:12:05;5.28;;;2.85;;
19207;SDS011;9737;59.466;18.036;2023-08-06T07:14:33;9.43;;;3.38;;
19207;SDS011;9737;59.466;18.036;2023-08-06T07:17:01;5.90;;;2.65;;
19207;SDS011;9737;59.466;18.036;2023-08-06T07:19:29;6.38;;;3.30;;
19207;SDS011;9737;59.466;18.036;2023-08-06T07:21:57;4.45;;;2.88;;
19207;SDS011;9737;59.466;18.036;2023-08-06T07:24:27;5.78;;;2.85;;
19207;SDS011;9737;59.466;18.036;2023-08-06T07:26:55;5.97;;;3.05;;
19207;SDS011;9737;59.466;18.036;2023-08-06T07:29:23;6.40;;;3.10;;
19207;SDS011;9737;59.466;18.036;2023-08-06T07:31:51;5.88;;;2.80;;
19207;SDS011;9737;59.466;18.036;2023-08-06T07:34:19;5.35;;;3.05;;
19207;SDS011;9737;59.466;18.036;2023-08-06T07:36:47;4.38;;;2.60;;
19207;SDS011;9737;59.466;18.036;2023-08-06T07:39:15;7.70;;;3.03;;
19207;SDS011;9737;59.466;18.036;2023-08-06T07:41:45;5.35;;;2.88;;
19207;SDS011;9737;59.466;18.036;2023-08-06T07:44:13;8.70;;;2.80;;
19207;SDS011;9737;59.466;18.036;2023-08-06T07:46:41;4.72;;;3.03;;
19207;SDS011;9737;59.466;18.036;2023-08-06T07:49:09;6.63;;;2.92;;
19207;SDS011;9737;59.466;18.036;2023-08-06T07:51:38;7.45;;;3.20;;
19207;SDS011;9737;59.466;18.036;2023-08-06T07:54:06;8.70;;;2.88;;
19207;SDS011;9737;59.466;18.036;2023-08-06T07:56:34;4.95;;;2.85;;
19207;SDS011;9737;59.466;18.036;2023-08-06T07:59:04;4.97;;;2.58;;
19207;SDS011;9737;59.466;18.036;2023-08-06T08:01:33;6.13;;;2.80;;
19207;SDS011;9737;59.466;18.036;2023-08-06T08:04:01;5.38;;;2.67;;
19207;SDS011;9737;59.466;18.036;2023-08-06T08:06:29;6.28;;;2.65;;
19207;SDS011;9737;59.466;18.036;2023-08-06T08:08:56;4.72;;;2.83;;
19207;SDS011;9737;59.466;18.036;2023-08-06T08:11:25;10.13;;;3.03;;
19207;SDS011;9737;59.466;18.036;2023-08-06T08:13:53;9.15;;;2.97;;
19207;SDS011;9737;59.466;18.036;2023-08-06T08:16:22;5.07;;;2.78;;
19207;SDS011;9737;59.466;18.036;2023-08-06T08:18:50;10.43;;;3.10;;
19207;SDS011;9737;59.466;18.036;2023-08-06T08:21:18;5.75;;;3.08;;
19207;SDS011;9737;59.466;18.036;2023-08-06T08:23:46;4.95;;;3.00;;
19207;SDS011;9737;59.466;18.036;2023-08-06T08:26:14;4.65;;;2.80;;
19207;SDS011;9737;59.466;18.036;2023-08-06T08:28:41;8.50;;;2.65;;
19207;SDS011;9737;59.466;18.036;2023-08-06T08:31:09;4.40;;;2.75;;
19207;SDS011;9737;59.466;18.036;2023-08-06T08:33:39;8.35;;;2.75;;
19207;SDS011;9737;59.466;18.036;2023-08-06T08:36:07;6.13;;;2.55;;
19207;SDS011;9737;59.466;18.036;2023-08-06T08:38:36;5.72;;;2.83;;
19207;SDS011;9737;59.466;18.036;2023-08-06T08:41:04;5.57;;;2.80;;
19207;SDS011;9737;59.466;18.036;2023-08-06T08:43:31;7.72;;;2.70;;
19207;SDS011;9737;59.466;18.036;2023-08-06T08:46:00;7.80;;;2.80;;
19207;SDS011;9737;59.466;18.036;2023-08-06T08:48:29;3.75;;;2.60;;
19207;SDS011;9737;59.466;18.036;2023-08-06T08:50:58;5.10;;;2.80;;
19207;SDS011;9737;59.466;18.036;2023-08-06T08:53:27;8.48;;;3.28;;
19207;SDS011;9737;59.466;18.036;2023-08-06T08:55:55;6.35;;;2.90;;
19207;SDS011;9737;59.466;18.036;2023-08-06T08:58:23;8.73;;;2.78;;
19207;SDS011;9737;59.466;18.036;2023-08-06T09:00:51;7.97;;;2.85;;
19207;SDS011;9737;59.466;18.036;2023-08-06T09:03:20;7.38;;;2.80;;
19207;SDS011;9737;59.466;18.036;2023-08-06T09:05:49;7.93;;;2.95;;
19207;SDS011;9737;59.466;18.036;2023-08-06T09:08:24;7.78;;;2.92;;
19207;SDS011;9737;59.466;18.036;2023-08-06T09:10:57;9.35;;;3.10;;
19207;SDS011;9737;59.466;18.036;2023-08-06T09:13:28;14.20;;;3.45;;
19207;SDS011;9737;59.466;18.036;2023-08-06T09:15:55;11.52;;;2.88;;
19207;SDS011;9737;59.466;18.036;2023-08-06T09:18:27;6.45;;;3.22;;
19207;SDS011;9737;59.466;18.036;2023-08-06T09:20:56;7.75;;;3.10;;
19207;SDS011;9737;59.466;18.036;2023-08-06T09:23:31;10.00;;;3.55;;
19207;SDS011;9737;59.466;18.036;2023-08-06T09:26:02;5.70;;;2.72;;
19207;SDS011;9737;59.466;18.036;2023-08-06T09:28:36;6.85;;;2.67;;
19207;SDS011;9737;59.466;18.036;2023-08-06T09:31:05;6.45;;;2.95;;
19207;SDS011;9737;59.466;18.036;2023-08-06T09:33:34;6.03;;;2.60;;
19207;SDS011;9737;59.466;18.036;2023-08-06T09:36:07;6.90;;;2.97;;
19207;SDS011;9737;59.466;18.036;2023-08-06T09:38:38;6.63;;;2.90;;
19207;SDS011;9737;59.466;18.036;2023-08-06T09:41:07;9.73;;;3.30;;
19207;SDS011;9737;59.466;18.036;2023-08-06T09:43:41;8.80;;;3.28;;
19207;SDS011;9737;59.466;18.036;2023-08-06T09:46:10;6.65;;;3.50;;
19207;SDS011;9737;59.466;18.036;2023-08-06T09:48:40;9.20;;;3.08;;
19207;SDS011;9737;59.466;18.036;2023-08-06T09:51:08;11.27;;;3.10;;
19207;SDS011;9737;59.466;18.036;2023-08-06T09:53:37;7.32;;;3.10;;
19207;SDS011;9737;59.466;18.036;2023-08-06T09:56:08;6.35;;;2.90;;
19207;SDS011;9737;59.466;18.036;2023-08-06T09:58:37;11.85;;;3.00;;
19207;SDS011;9737;59.466;18.036;2023-08-06T10:01:05;8.77;;;2.97;;
19207;SDS011;9737;59.466;18.036;2023-08-06T10:03:34;7.35;;;3.55;;
19207;SDS011;9737;59.466;18.036;2023-08-06T10:06:04;7.30;;;3.35;;
19207;SDS011;9737;59.466;18.036;2023-08-06T10:08:35;12.20;;;3.17;;
19207;SDS011;9737;59.466;18.036;2023-08-06T10:11:04;8.02;;;3.65;;
19207;SDS011;9737;59.466;18.036;2023-08-06T10:13:32;10.63;;;2.92;;
19207;SDS011;9737;59.466;18.036;2023-08-06T10:16:02;7.50;;;2.90;;
19207;SDS011;9737;59.466;18.036;2023-08-06T10:18:32;9.27;;;3.25;;
19207;SDS011;9737;59.466;18.036;2023-08-06T10:21:02;7.63;;;2.88;;
19207;SDS011;9737;59.466;18.036;2023-08-06T10:23:33;10.45;;;3.47;;
19207;SDS011;9737;59.466;18.036;2023-08-06T10:26:26;11.40;;;3.35;;
19207;SDS011;9737;59.466;18.036;2023-08-06T10:28:55;5.95;;;3.15;;
19207;SDS011;9737;59.466;18.036;2023-08-06T10:34:21;7.63;;;3.35;;
19207;SDS011;9737;59.466;18.036;2023-08-06T10:36:49;7.07;;;3.10;;
19207;SDS011;9737;59.466;18.036;2023-08-06T10:39:17;10.95;;;3.35;;
19207;SDS011;9737;59.466;18.036;2023-08-06T10:41:58;8.20;;;3.72;;
19207;SDS011;9737;59.466;18.036;2023-08-06T10:44:26;6.35;;;3.10;;
19207;SDS011;9737;59.466;18.036;2023-08-06T10:46:57;9.52;;;3.50;;
19207;SDS011;9737;59.466;18.036;2023-08-06T10:49:56;8.45;;;3.38;;
19207;SDS011;9737;59.466;18.036;2023-08-06T10:52:24;10.85;;;3.53;;
19207;SDS011;9737;59.466;18.036;2023-08-06T10:54:53;7.82;;;3.38;;
19207;SDS011;9737;59.466;18.036;2023-08-06T10:57:22;8.40;;;3.67;;
19207;SDS011;9737;59.466;18.036;2023-08-06T10:59:51;9.25;;;3.60;;
19207;SDS011;9737;59.466;18.036;2023-08-06T11:02:37;10.23;;;3.50;;
19207;SDS011;9737;59.466;18.036;2023-08-06T11:05:06;6.05;;;3.20;;
19207;SDS011;9737;59.466;18.036;2023-08-06T11:07:34;18.25;;;3.80;;
19207;SDS011;9737;59.466;18.036;2023-08-06T11:10:02;11.35;;;3.50;;
19207;SDS011;9737;59.466;18.036;2023-08-06T11:12:31;9.80;;;3.70;;
19207;SDS011;9737;59.466;18.036;2023-08-06T11:14:59;9.32;;;3.92;;
19207;SDS011;9737;59.466;18.036;2023-08-06T11:17:27;8.93;;;3.85;;
19207;SDS011;9737;59.466;18.036;2023-08-06T11:19:59;7.18;;;3.45;;
19207;SDS011;9737;59.466;18.036;2023-08-06T11:22:28;6.20;;;3.67;;
19207;SDS011;9737;59.466;18.036;2023-08-06T11:24:56;12.30;;;4.20;;
19207;SDS011;9737;59.466;18.036;2023-08-06T11:27:26;12.95;;;4.35;;
19207;SDS011;9737;59.466;18.036;2023-08-06T11:29:55;13.43;;;4.18;;
19207;SDS011;9737;59.466;18.036;2023-08-06T11:32:23;12.93;;;4.63;;
19207;SDS011;9737;59.466;18.036;2023-08-06T11:34:52;8.55;;;4.28;;
19207;SDS011;9737;59.466;18.036;2023-08-06T11:37:23;10.10;;;4.47;;
19207;SDS011;9737;59.466;18.036;2023-08-06T11:39:52;10.23;;;4.47;;
19207;SDS011;9737;59.466;18.036;2023-08-06T11:42:20;12.90;;;5.05;;
19207;SDS011;9737;59.466;18.036;2023-08-06T11:44:48;13.77;;;5.35;;
19207;SDS011;9737;59.466;18.036;2023-08-06T11:47:16;10.02;;;4.78;;
19207;SDS011;9737;59.466;18.036;2023-08-06T11:49:46;9.77;;;4.65;;
19207;SDS011;9737;59.466;18.036;2023-08-06T11:52:15;9.98;;;4.70;;
19207;SDS011;9737;59.466;18.036;2023-08-06T11:54:47;9.60;;;4.88;;
19207;SDS011;9737;59.466;18.036;2023-08-06T11:57:27;9.50;;;5.18;;
19207;SDS011;9737;59.466;18.036;2023-08-06T12:00:01;15.27;;;5.10;;
19207;SDS011;9737;59.466;18.036;2023-08-06T12:02:31;9.70;;;5.30;;
19207;SDS011;9737;59.466;18.036;2023-08-06T12:05:04;12.35;;;5.10;;
19207;SDS011;9737;59.466;18.036;2023-08-06T12:07:37;9.50;;;4.93;;
19207;SDS011;9737;59.466;18.036;2023-08-06T12:10:08;12.80;;;5.35;;
19207;SDS011;9737;59.466;18.036;2023-08-06T12:12:36;15.20;;;5.80;;
19207;SDS011;9737;59.466;18.036;2023-08-06T12:15:05;12.70;;;5.07;;
19207;SDS011;9737;59.466;18.036;2023-08-06T12:17:34;15.55;;;5.60;;
19207;SDS011;9737;59.466;18.036;2023-08-06T12:20:02;15.00;;;5.60;;
19207;SDS011;9737;59.466;18.036;2023-08-06T12:22:31;12.60;;;5.30;;
19207;SDS011;9737;59.466;18.036;2023-08-06T12:25:01;12.98;;;5.70;;
19207;SDS011;9737;59.466;18.036;2023-08-06T12:27:34;18.95;;;6.28;;
19207;SDS011;9737;59.466;18.036;2023-08-06T12:30:02;12.20;;;6.15;;
19207;SDS011;9737;59.466;18.036;2023-08-06T12:32:31;17.65;;;6.63;;
19207;SDS011;9737;59.466;18.036;2023-08-06T12:34:59;12.05;;;6.20;;
19207;SDS011;9737;59.466;18.036;2023-08-06T12:37:46;15.88;;;6.43;;
19207;SDS011;9737;59.466;18.036;2023-08-06T12:40:14;13.10;;;7.18;;
19207;SDS011;9737;59.466;18.036;2023-08-06T12:43:02;12.82;;;6.40;;
19207;SDS011;9737;59.466;18.036;2023-08-06T12:45:30;19.50;;;7.38;;
19207;SDS011;9737;59.466;18.036;2023-08-06T12:47:58;15.70;;;7.40;;
19207;SDS011;9737;59.466;18.036;2023-08-06T12:50:26;10.73;;;7.03;;
19207;SDS011;9737;59.466;18.036;2023-08-06T12:52:54;12.98;;;6.75;;
19207;SDS011;9737;59.466;18.036;2023-08-06T12:55:22;14.88;;;7.57;;
19207;SDS011;9737;59.466;18.036;2023-08-06T12:57:49;15.85;;;7.28;;
19207;SDS011;9737;59.466;18.036;2023-08-06T13:00:26;17.42;;;7.82;;
19207;SDS011;9737;59.466;18.036;2023-08-06T13:02:54;14.45;;;7.38;;
19207;SDS011;9737;59.466;18.036;2023-08-06T13:05:22;10.98;;;7.40;;
19207;SDS011;9737;59.466;18.036;2023-08-06T13:07:50;17.60;;;7.90;;
19207;SDS011;9737;59.466;18.036;2023-08-06T13:10:18;14.52;;;7.60;;
19207;SDS011;9737;59.466;18.036;2023-08-06T13:12:47;15.60;;;7.20;;
19207;SDS011;9737;59.466;18.036;2023-08-06T13:15:14;16.17;;;7.63;;
19207;SDS011;9737;59.466;18.036;2023-08-06T13:17:44;14.63;;;7.22;;
19207;SDS011;9737;59.466;18.036;2023-08-06T13:20:12;14.88;;;7.03;;
19207;SDS011;9737;59.466;18.036;2023-08-06T13:22:43;11.25;;;7.18;;
19207;SDS011;9737;59.466;18.036;2023-08-06T13:25:12;12.07;;;7.28;;
19207;SDS011;9737;59.466;18.036;2023-08-06T13:27:40;11.25;;;6.93;;
19207;SDS011;9737;59.466;18.036;2023-08-06T13:30:10;13.63;;;6.30;;
19207;SDS011;9737;59.466;18.036;2023-08-06T13:32:38;13.40;;;6.35;;
19207;SDS011;9737;59.466;18.036;2023-08-06T13:35:08;11.90;;;6.75;;
19207;SDS011;9737;59.466;18.036;2023-08-06T13:37:36;15.02;;;6.72;;
19207;SDS011;9737;59.466;18.036;2023-08-06T13:40:04;13.15;;;7.43;;
19207;SDS011;9737;59.466;18.036;2023-08-06T13:42:33;16.13;;;7.32;;
19207;SDS011;9737;59.466;18.036;2023-08-06T13:45:01;12.38;;;7.10;;
19207;SDS011;9737;59.466;18.036;2023-08-06T13:47:30;15.48;;;7.60;;
19207;SDS011;9737;59.466;18.036;2023-08-06T13:49:58;14.73;;;7.53;;
19207;SDS011;9737;59.466;18.036;2023-08-06T13:52:45;14.95;;;7.72;;
19207;SDS011;9737;59.466;18.036;2023-08-06T13:55:12;15.45;;;7.03;;
19207;SDS011;9737;59.466;18.036;2023-08-06T13:57:40;13.93;;;7.50;;
19207;SDS011;9737;59.466;18.036;2023-08-06T14:00:08;14.43;;;7.10;;
19207;SDS011;9737;59.466;18.036;2023-08-06T14:02:37;11.88;;;7.38;;
19207;SDS011;9737;59.466;18.036;2023-08-06T14:05:05;12.30;;;7.47;;
19207;SDS011;9737;59.466;18.036;2023-08-06T14:07:33;14.30;;;6.88;;
19207;SDS011;9737;59.466;18.036;2023-08-06T14:10:03;10.80;;;6.78;;
19207;SDS011;9737;59.466;18.036;2023-08-06T14:12:31;11.00;;;6.97;;
19207;SDS011;9737;59.466;18.036;2023-08-06T14:14:59;14.30;;;7.40;;
19207;SDS011;9737;59.466;18.036;2023-08-06T14:17:29;12.48;;;6.80;;
19207;SDS011;9737;59.466;18.036;2023-08-06T14:19:57;12.45;;;6.43;;
19207;SDS011;9737;59.466;18.036;2023-08-06T14:22:24;13.60;;;6.75;;
19207;SDS011;9737;59.466;18.036;2023-08-06T14:24:52;11.93;;;6.70;;
19207;SDS011;9737;59.466;18.036;2023-08-06T14:27:22;14.73;;;6.85;;
19207;SDS011;9737;59.466;18.036;2023-08-06T14:29:50;12.48;;;7.20;;
19207;SDS011;9737;59.466;18.036;2023-08-06T14:32:18;11.02;;;6.95;;
19207;SDS011;9737;59.466;18.036;2023-08-06T14:34:46;13.82;;;6.45;;
19207;SDS011;9737;59.466;18.036;2023-08-06T14:37:14;11.88;;;6.38;;
19207;SDS011;9737;59.466;18.036;2023-08-06T14:39:42;11.82;;;6.72;;
19207;SDS011;9737;59.466;18.036;2023-08-06T14:42:10;12.98;;;6.65;;
19207;SDS011;9737;59.466;18.036;2023-08-06T14:44:39;12.18;;;7.15;;
19207;SDS011;9737;59.466;18.036;2023-08-06T14:47:07;10.68;;;6.47;;
19207;SDS011;9737;59.466;18.036;2023-08-06T14:49:35;12.10;;;6.45;;
19207;SDS011;9737;59.466;18.036;2023-08-06T14:52:04;11.85;;;6.25;;
19207;SDS011;9737;59.466;18.036;2023-08-06T14:54:32;10.77;;;6.15;;
19207;SDS011;9737;59.466;18.036;2023-08-06T14:57:00;9.80;;;6.15;;